Terminal Aerodrome Forecast
Issued by NWS

Home | Current Version | Previous Version | Text Only | Print | Product List | Glossary On
Versions: 1 2 3 4 5 6 7 8 9 10 11 12 13 14 15 16 17
000
FTPA31 PHFO 221925 AAA
TAFHLI
TAF AMD
PHLI 221925Z 2219/2318 06013KT P6SM FEW020 BKN050
      TEMPO 2219/2221 BKN016 BKN060
     FM230400 05014G22KT P6SM VCSH FEW022 BKN045=

USA.gov is the U.S. government's official web portal to all federal, state and local government web resources and services.